Las Vegas, NM (87701)

2:31 PM MDT on May 05, 2015 (GMT -0600)
North 8th. Street Extension | | Change Station
CLOSE
Current Station
Personal Weather Station
Location: Las Vegas, NM
Elevation: 6526 ft
Nearby Weather Stations

Elev 6526 ft 35.61 °N, 105.23 °W | Updated 12 seconds ago

Overcast
Overcast
66.0 °F
Feels Like 66.0 °F
N
3.1
Wind Variable Wind from ENE
Gusts 14.5 mph

Today
High -- | Low -- °F
--% Chance of Precip.
Yesterday
High -- | Low -- °F
Precip. -- in
6:05 AM 7:50 PM
Full, 97% visible
Pressure 29.68 in
Visibility 10.0 miles
Clouds Few 4500 ft
Scattered Clouds 11000 ft
Dew Point 40 °F
Humidity 39%
Rainfall 0.33 in
Snow Depth Not available.
UV 4.0 out of 12
Pollen 4.70 out of 12
Air Quality Not available.
Flu Activity Local Activity
METAR KLVS 051953Z AUTO 24014KT 10SM FEW045 SCT110 15/04 A2990 RMK AO2 WSHFT 1845 RAE13 TSB1857E23 SLP051 P0000 T01500044

More Conditions Fewer Conditions

Pressure 29.68 in
Visibility 10.0 miles
Clouds Few 4500 ft
Scattered Clouds 11000 ft
Dew Point 40 °F
Humidity 39%
Rainfall 0.33 in
Snow Depth Not available.
UV 4.0 out of 12
Pollen 4.70 out of 12
Air Quality Not available.
Flu Activity Local Activity
METAR KLVS 051953Z AUTO 24014KT 10SM FEW045 SCT110 15/04 A2990 RMK AO2 WSHFT 1845 RAE13 TSB1857E23 SLP051 P0000 T01500044

More Conditions Fewer Conditions

10-Day Weather Forecast

Almanac

Astronomy

May. 05, 2015 Rise Set
Actual Time
Civil Twilight
Nautical Twilight
Astronomical Twilight
Moon
Length of Visible Light
Length of Day
Tomorrow will be .
, % of the Moon is Illuminated

Today's Extremes

State Highs State Lows

Community

WunderPhotos

Upload Photos

1,818,970 photos uploaded!

WunderBlogs® & News

Nearby

Air Quality

  Air Quality AQ Index Pollutant
Not available.

Snow Depth

Station Depth Elevation

Earthquake Activity

City Distance Mag. Time & Date
Minimum magnitude displayed is 2.5.

Coastal Water Temperatures

Place Temperature

Stations

Nearby Weather Stations

Station Location Temp. Windchill Dew Point Humidity Wind Precip. Elev Updated Type